sensor_id;sensor_type;location;lat;lon;timestamp;temperature;humidity
5200;DHT22;2619;47.868;11.892;2023-04-23T00:00:44;12.50;99.90
5200;DHT22;2619;47.868;11.892;2023-04-23T00:03:12;12.40;99.90
5200;DHT22;2619;47.868;11.892;2023-04-23T00:05:39;12.30;99.90
5200;DHT22;2619;47.868;11.892;2023-04-23T00:08:07;12.10;99.90
5200;DHT22;2619;47.868;11.892;2023-04-23T00:10:32;12.10;99.90
5200;DHT22;2619;47.868;11.892;2023-04-23T00:12:58;12.10;99.90
5200;DHT22;2619;47.868;11.892;2023-04-23T00:15:24;12.10;99.90
5200;DHT22;2619;47.868;11.892;2023-04-23T00:17:50;12.20;99.90
5200;DHT22;2619;47.868;11.892;2023-04-23T00:20:15;12.30;99.90
5200;DHT22;2619;47.868;11.892;2023-04-23T00:22:42;12.30;99.90
5200;DHT22;2619;47.868;11.892;2023-04-23T00:25:08;12.20;99.90
5200;DHT22;2619;47.868;11.892;2023-04-23T00:27:34;12.20;99.90
5200;DHT22;2619;47.868;11.892;2023-04-23T00:30:00;12.20;99.90
5200;DHT22;2619;47.868;11.892;2023-04-23T00:32:25;12.30;99.90
5200;DHT22;2619;47.868;11.892;2023-04-23T00:34:51;12.30;99.90
5200;DHT22;2619;47.868;11.892;2023-04-23T00:37:17;12.30;99.90
5200;DHT22;2619;47.868;11.892;2023-04-23T00:39:43;12.30;99.90
5200;DHT22;2619;47.868;11.892;2023-04-23T00:42:09;12.20;99.90
5200;DHT22;2619;47.868;11.892;2023-04-23T00:44:40;12.10;99.90
5200;DHT22;2619;47.868;11.892;2023-04-23T00:47:09;12.00;99.90
5200;DHT22;2619;47.868;11.892;2023-04-23T00:49:35;11.90;99.90
5200;DHT22;2619;47.868;11.892;2023-04-23T00:52:02;11.70;99.90
5200;DHT22;2619;47.868;11.892;2023-04-23T00:54:28;11.60;99.90
5200;DHT22;2619;47.868;11.892;2023-04-23T00:56:54;11.60;99.90
5200;DHT22;2619;47.868;11.892;2023-04-23T00:59:23;11.60;99.90
5200;DHT22;2619;47.868;11.892;2023-04-23T01:01:50;11.60;99.90
5200;DHT22;2619;47.868;11.892;2023-04-23T01:04:16;11.70;99.90
5200;DHT22;2619;47.868;11.892;2023-04-23T01:06:44;11.70;99.90
5200;DHT22;2619;47.868;11.892;2023-04-23T01:09:11;11.50;99.90
5200;DHT22;2619;47.868;11.892;2023-04-23T01:11:39;11.50;99.90
5200;DHT22;2619;47.868;11.892;2023-04-23T01:14:07;11.40;99.90
5200;DHT22;2619;47.868;11.892;2023-04-23T01:16:33;11.30;99.90
5200;DHT22;2619;47.868;11.892;2023-04-23T01:18:59;11.30;99.90
5200;DHT22;2619;47.868;11.892;2023-04-23T01:21:28;11.40;99.90
5200;DHT22;2619;47.868;11.892;2023-04-23T01:23:54;11.30;99.90
5200;DHT22;2619;47.868;11.892;2023-04-23T01:26:21;11.20;99.90
5200;DHT22;2619;47.868;11.892;2023-04-23T01:28:48;11.00;99.90
5200;DHT22;2619;47.868;11.892;2023-04-23T01:31:15;11.00;99.90
5200;DHT22;2619;47.868;11.892;2023-04-23T01:33:41;11.00;99.90
5200;DHT22;2619;47.868;11.892;2023-04-23T01:36:07;11.00;99.90
5200;DHT22;2619;47.868;11.892;2023-04-23T01:38:34;11.00;99.90
5200;DHT22;2619;47.868;11.892;2023-04-23T01:41:00;10.90;99.90
5200;DHT22;2619;47.868;11.892;2023-04-23T01:43:27;10.90;99.90
5200;DHT22;2619;47.868;11.892;2023-04-23T01:45:52;10.80;99.90
5200;DHT22;2619;47.868;11.892;2023-04-23T01:48:18;10.80;99.90
5200;DHT22;2619;47.868;11.892;2023-04-23T01:50:44;10.70;99.90
5200;DHT22;2619;47.868;11.892;2023-04-23T01:53:09;10.60;99.90
5200;DHT22;2619;47.868;11.892;2023-04-23T01:55:39;10.60;99.90
5200;DHT22;2619;47.868;11.892;2023-04-23T01:58:05;10.60;99.90
5200;DHT22;2619;47.868;11.892;2023-04-23T02:00:31;10.60;99.90
5200;DHT22;2619;47.868;11.892;2023-04-23T02:02:57;10.60;99.90
5200;DHT22;2619;47.868;11.892;2023-04-23T02:05:23;10.60;99.90
5200;DHT22;2619;47.868;11.892;2023-04-23T02:07:50;10.60;99.90
5200;DHT22;2619;47.868;11.892;2023-04-23T02:10:16;10.60;99.90
5200;DHT22;2619;47.868;11.892;2023-04-23T02:12:43;10.70;99.90
5200;DHT22;2619;47.868;11.892;2023-04-23T02:15:10;10.70;99.90
5200;DHT22;2619;47.868;11.892;2023-04-23T02:17:36;10.60;99.90
5200;DHT22;2619;47.868;11.892;2023-04-23T02:20:05;10.50;99.90
5200;DHT22;2619;47.868;11.892;2023-04-23T02:22:31;10.30;99.90
5200;DHT22;2619;47.868;11.892;2023-04-23T02:24:57;10.20;99.90
5200;DHT22;2619;47.868;11.892;2023-04-23T02:27:23;10.20;99.90
5200;DHT22;2619;47.868;11.892;2023-04-23T02:29:48;10.20;99.90
5200;DHT22;2619;47.868;11.892;2023-04-23T02:32:14;10.30;99.90
5200;DHT22;2619;47.868;11.892;2023-04-23T02:34:40;10.40;99.90
5200;DHT22;2619;47.868;11.892;2023-04-23T02:37:05;10.30;99.90
5200;DHT22;2619;47.868;11.892;2023-04-23T02:39:31;10.20;99.90
5200;DHT22;2619;47.868;11.892;2023-04-23T02:41:57;10.00;99.90
5200;DHT22;2619;47.868;11.892;2023-04-23T02:44:26;10.00;99.90
5200;DHT22;2619;47.868;11.892;2023-04-23T02:46:51;9.80;99.90
5200;DHT22;2619;47.868;11.892;2023-04-23T02:49:17;9.90;99.90
5200;DHT22;2619;47.868;11.892;2023-04-23T02:51:45;9.90;99.90
5200;DHT22;2619;47.868;11.892;2023-04-23T02:54:11;9.90;99.90
5200;DHT22;2619;47.868;11.892;2023-04-23T02:56:37;9.90;99.90
5200;DHT22;2619;47.868;11.892;2023-04-23T02:59:02;9.90;99.90
5200;DHT22;2619;47.868;11.892;2023-04-23T03:01:28;9.90;99.90
5200;DHT22;2619;47.868;11.892;2023-04-23T03:03:54;9.90;99.90
5200;DHT22;2619;47.868;11.892;2023-04-23T03:06:20;9.90;99.90
5200;DHT22;2619;47.868;11.892;2023-04-23T03:08:45;9.90;99.90
5200;DHT22;2619;47.868;11.892;2023-04-23T03:11:11;9.70;99.90
5200;DHT22;2619;47.868;11.892;2023-04-23T03:13:37;9.60;99.90
5200;DHT22;2619;47.868;11.892;2023-04-23T03:16:02;9.50;99.90
5200;DHT22;2619;47.868;11.892;2023-04-23T03:18:28;9.40;99.90
5200;DHT22;2619;47.868;11.892;2023-04-23T03:20:53;9.40;99.90
5200;DHT22;2619;47.868;11.892;2023-04-23T03:23:19;9.50;99.90
5200;DHT22;2619;47.868;11.892;2023-04-23T03:25:44;9.70;99.90
5200;DHT22;2619;47.868;11.892;2023-04-23T03:28:10;9.90;99.90
5200;DHT22;2619;47.868;11.892;2023-04-23T03:30:36;10.00;99.90
5200;DHT22;2619;47.868;11.892;2023-04-23T03:33:02;9.90;99.90
5200;DHT22;2619;47.868;11.892;2023-04-23T03:35:27;9.80;99.90
5200;DHT22;2619;47.868;11.892;2023-04-23T03:37:53;9.80;99.90
5200;DHT22;2619;47.868;11.892;2023-04-23T03:40:20;9.80;99.90
5200;DHT22;2619;47.868;11.892;2023-04-23T03:42:46;9.90;99.90
5200;DHT22;2619;47.868;11.892;2023-04-23T03:45:11;10.00;99.90
5200;DHT22;2619;47.868;11.892;2023-04-23T03:47:41;10.10;99.90
5200;DHT22;2619;47.868;11.892;2023-04-23T03:50:07;10.10;99.90
5200;DHT22;2619;47.868;11.892;2023-04-23T03:52:34;10.10;99.90
5200;DHT22;2619;47.868;11.892;2023-04-23T03:55:00;10.10;99.90
5200;DHT22;2619;47.868;11.892;2023-04-23T03:57:25;10.20;99.90
5200;DHT22;2619;47.868;11.892;2023-04-23T03:59:51;10.20;99.90
5200;DHT22;2619;47.868;11.892;2023-04-23T04:02:16;10.20;99.90
5200;DHT22;2619;47.868;11.892;2023-04-23T04:04:42;10.10;99.90
5200;DHT22;2619;47.868;11.892;2023-04-23T04:07:10;10.10;99.90
5200;DHT22;2619;47.868;11.892;2023-04-23T04:09:37;10.10;99.90
5200;DHT22;2619;47.868;11.892;2023-04-23T04:12:04;10.10;99.90
5200;DHT22;2619;47.868;11.892;2023-04-23T04:14:30;10.10;99.90
5200;DHT22;2619;47.868;11.892;2023-04-23T04:16:56;10.10;99.90
5200;DHT22;2619;47.868;11.892;2023-04-23T04:19:22;10.10;99.90
5200;DHT22;2619;47.868;11.892;2023-04-23T04:21:47;10.10;99.90
5200;DHT22;2619;47.868;11.892;2023-04-23T04:24:13;10.10;99.90
5200;DHT22;2619;47.868;11.892;2023-04-23T04:26:39;10.10;99.90
5200;DHT22;2619;47.868;11.892;2023-04-23T04:29:04;10.10;99.90
5200;DHT22;2619;47.868;11.892;2023-04-23T04:31:31;10.10;99.90
5200;DHT22;2619;47.868;11.892;2023-04-23T04:33:57;10.10;99.90
5200;DHT22;2619;47.868;11.892;2023-04-23T04:36:23;10.10;99.90
5200;DHT22;2619;47.868;11.892;2023-04-23T04:38:53;10.10;99.90
5200;DHT22;2619;47.868;11.892;2023-04-23T04:41:25;10.10;99.90
5200;DHT22;2619;47.868;11.892;2023-04-23T04:43:52;10.10;99.90
5200;DHT22;2619;47.868;11.892;2023-04-23T04:46:19;10.10;99.90
5200;DHT22;2619;47.868;11.892;2023-04-23T04:48:45;10.20;99.90
5200;DHT22;2619;47.868;11.892;2023-04-23T04:51:11;10.30;99.90
5200;DHT22;2619;47.868;11.892;2023-04-23T04:53:36;10.30;99.90
5200;DHT22;2619;47.868;11.892;2023-04-23T04:56:02;10.40;99.90
5200;DHT22;2619;47.868;11.892;2023-04-23T04:58:28;10.30;99.90
5200;DHT22;2619;47.868;11.892;2023-04-23T05:00:54;10.30;99.90
5200;DHT22;2619;47.868;11.892;2023-04-23T05:03:20;10.30;99.90
5200;DHT22;2619;47.868;11.892;2023-04-23T05:05:46;10.30;99.90
5200;DHT22;2619;47.868;11.892;2023-04-23T05:08:13;10.30;99.90
5200;DHT22;2619;47.868;11.892;2023-04-23T05:10:42;10.40;99.90
5200;DHT22;2619;47.868;11.892;2023-04-23T05:13:08;10.50;99.90
5200;DHT22;2619;47.868;11.892;2023-04-23T05:15:34;10.50;99.90
5200;DHT22;2619;47.868;11.892;2023-04-23T05:18:02;10.50;99.90
5200;DHT22;2619;47.868;11.892;2023-04-23T05:20:28;10.50;99.90
5200;DHT22;2619;47.868;11.892;2023-04-23T05:22:54;10.40;99.90
5200;DHT22;2619;47.868;11.892;2023-04-23T05:25:20;10.50;99.90
5200;DHT22;2619;47.868;11.892;2023-04-23T05:27:45;10.60;99.90
5200;DHT22;2619;47.868;11.892;2023-04-23T05:30:11;10.80;99.90
5200;DHT22;2619;47.868;11.892;2023-04-23T05:32:37;10.80;99.90
5200;DHT22;2619;47.868;11.892;2023-04-23T05:35:03;10.80;99.90
5200;DHT22;2619;47.868;11.892;2023-04-23T05:37:29;10.80;99.90
5200;DHT22;2619;47.868;11.892;2023-04-23T05:39:55;10.80;99.90
5200;DHT22;2619;47.868;11.892;2023-04-23T05:42:21;10.80;99.90
5200;DHT22;2619;47.868;11.892;2023-04-23T05:44:47;10.70;99.90
5200;DHT22;2619;47.868;11.892;2023-04-23T05:47:13;10.80;99.90
5200;DHT22;2619;47.868;11.892;2023-04-23T05:49:39;10.80;99.90
5200;DHT22;2619;47.868;11.892;2023-04-23T05:52:05;10.80;99.90
5200;DHT22;2619;47.868;11.892;2023-04-23T05:54:31;10.90;99.90
5200;DHT22;2619;47.868;11.892;2023-04-23T05:56:56;11.00;99.90
5200;DHT22;2619;47.868;11.892;2023-04-23T05:59:23;11.00;99.90
5200;DHT22;2619;47.868;11.892;2023-04-23T06:01:48;11.00;99.90
5200;DHT22;2619;47.868;11.892;2023-04-23T06:04:15;11.00;99.90
5200;DHT22;2619;47.868;11.892;2023-04-23T06:06:44;10.90;99.90
5200;DHT22;2619;47.868;11.892;2023-04-23T06:09:09;10.80;99.90
5200;DHT22;2619;47.868;11.892;2023-04-23T06:11:35;10.90;99.90
5200;DHT22;2619;47.868;11.892;2023-04-23T06:14:02;10.80;99.90
5200;DHT22;2619;47.868;11.892;2023-04-23T06:16:27;10.90;99.90
5200;DHT22;2619;47.868;11.892;2023-04-23T06:18:53;10.80;99.90
5200;DHT22;2619;47.868;11.892;2023-04-23T06:21:21;10.80;99.90
5200;DHT22;2619;47.868;11.892;2023-04-23T06:23:46;10.70;99.90
5200;DHT22;2619;47.868;11.892;2023-04-23T06:26:12;10.80;99.90
5200;DHT22;2619;47.868;11.892;2023-04-23T06:28:38;10.80;99.90
5200;DHT22;2619;47.868;11.892;2023-04-23T06:31:04;11.00;99.90
5200;DHT22;2619;47.868;11.892;2023-04-23T06:33:30;11.00;99.90
5200;DHT22;2619;47.868;11.892;2023-04-23T06:35:55;10.90;99.90
5200;DHT22;2619;47.868;11.892;2023-04-23T06:38:21;10.90;99.90
5200;DHT22;2619;47.868;11.892;2023-04-23T06:40:47;10.80;99.90
5200;DHT22;2619;47.868;11.892;2023-04-23T06:43:13;10.80;99.90
5200;DHT22;2619;47.868;11.892;2023-04-23T06:45:39;10.70;99.90
5200;DHT22;2619;47.868;11.892;2023-04-23T06:48:04;10.70;99.90
5200;DHT22;2619;47.868;11.892;2023-04-23T06:50:30;10.70;99.90
5200;DHT22;2619;47.868;11.892;2023-04-23T06:52:56;10.70;99.90
5200;DHT22;2619;47.868;11.892;2023-04-23T06:55:21;10.80;99.90
5200;DHT22;2619;47.868;11.892;2023-04-23T06:57:54;10.90;99.90
5200;DHT22;2619;47.868;11.892;2023-04-23T07:00:23;10.90;99.90
5200;DHT22;2619;47.868;11.892;2023-04-23T07:02:48;11.00;99.90
5200;DHT22;2619;47.868;11.892;2023-04-23T07:05:16;11.00;99.90
5200;DHT22;2619;47.868;11.892;2023-04-23T07:07:41;11.10;99.90
5200;DHT22;2619;47.868;11.892;2023-04-23T07:10:08;11.00;99.90
5200;DHT22;2619;47.868;11.892;2023-04-23T07:12:35;11.10;99.90
5200;DHT22;2619;47.868;11.892;2023-04-23T07:15:01;11.10;99.90
5200;DHT22;2619;47.868;11.892;2023-04-23T07:17:27;11.00;99.90
5200;DHT22;2619;47.868;11.892;2023-04-23T07:19:52;11.00;99.90
5200;DHT22;2619;47.868;11.892;2023-04-23T07:22:18;11.10;99.90
5200;DHT22;2619;47.868;11.892;2023-04-23T07:24:43;11.10;99.90
5200;DHT22;2619;47.868;11.892;2023-04-23T07:27:09;11.20;99.90
5200;DHT22;2619;47.868;11.892;2023-04-23T07:29:34;11.20;99.90
5200;DHT22;2619;47.868;11.892;2023-04-23T07:32:00;11.30;99.90
5200;DHT22;2619;47.868;11.892;2023-04-23T07:34:26;11.40;99.90
5200;DHT22;2619;47.868;11.892;2023-04-23T07:36:51;11.60;99.90
5200;DHT22;2619;47.868;11.892;2023-04-23T07:39:17;11.70;99.90
5200;DHT22;2619;47.868;11.892;2023-04-23T07:41:42;11.80;99.90
5200;DHT22;2619;47.868;11.892;2023-04-23T07:44:08;11.90;99.90
5200;DHT22;2619;47.868;11.892;2023-04-23T07:46:34;12.10;99.90
5200;DHT22;2619;47.868;11.892;2023-04-23T07:48:59;12.20;99.90
5200;DHT22;2619;47.868;11.892;2023-04-23T07:51:25;12.40;99.90
5200;DHT22;2619;47.868;11.892;2023-04-23T07:53:54;12.40;99.90
5200;DHT22;2619;47.868;11.892;2023-04-23T07:56:21;12.50;99.90
5200;DHT22;2619;47.868;11.892;2023-04-23T07:58:47;12.50;99.90
5200;DHT22;2619;47.868;11.892;2023-04-23T08:01:12;12.50;99.90
5200;DHT22;2619;47.868;11.892;2023-04-23T08:03:38;12.50;99.90
5200;DHT22;2619;47.868;11.892;2023-04-23T08:06:04;12.50;99.90
5200;DHT22;2619;47.868;11.892;2023-04-23T08:08:30;12.50;99.90
5200;DHT22;2619;47.868;11.892;2023-04-23T08:10:57;12.40;99.90
5200;DHT22;2619;47.868;11.892;2023-04-23T08:13:23;12.30;99.90
5200;DHT22;2619;47.868;11.892;2023-04-23T08:15:48;12.20;99.90
5200;DHT22;2619;47.868;11.892;2023-04-23T08:18:14;12.30;99.90
5200;DHT22;2619;47.868;11.892;2023-04-23T08:20:40;12.30;99.90
5200;DHT22;2619;47.868;11.892;2023-04-23T08:23:06;12.30;99.90
5200;DHT22;2619;47.868;11.892;2023-04-23T08:25:31;12.20;99.90
5200;DHT22;2619;47.868;11.892;2023-04-23T08:27:57;12.30;99.90
5200;DHT22;2619;47.868;11.892;2023-04-23T08:30:23;12.40;99.90
5200;DHT22;2619;47.868;11.892;2023-04-23T08:32:50;12.40;99.90
5200;DHT22;2619;47.868;11.892;2023-04-23T08:35:18;12.50;99.90
5200;DHT22;2619;47.868;11.892;2023-04-23T08:37:44;12.60;99.90
5200;DHT22;2619;47.868;11.892;2023-04-23T08:40:10;12.60;99.90
5200;DHT22;2619;47.868;11.892;2023-04-23T08:42:37;12.70;99.90
5200;DHT22;2619;47.868;11.892;2023-04-23T08:45:03;12.80;99.90
5200;DHT22;2619;47.868;11.892;2023-04-23T08:47:29;12.90;99.90
5200;DHT22;2619;47.868;11.892;2023-04-23T08:49:58;13.00;99.90
5200;DHT22;2619;47.868;11.892;2023-04-23T08:52:25;13.20;99.90
5200;DHT22;2619;47.868;11.892;2023-04-23T08:54:53;13.30;99.90
5200;DHT22;2619;47.868;11.892;2023-04-23T08:57:21;13.40;99.90
5200;DHT22;2619;47.868;11.892;2023-04-23T08:59:47;13.50;99.90
5200;DHT22;2619;47.868;11.892;2023-04-23T09:02:13;13.50;99.90
5200;DHT22;2619;47.868;11.892;2023-04-23T09:04:40;13.60;99.90
5200;DHT22;2619;47.868;11.892;2023-04-23T09:07:06;13.60;99.90
5200;DHT22;2619;47.868;11.892;2023-04-23T09:09:37;13.60;99.90
5200;DHT22;2619;47.868;11.892;2023-04-23T09:12:07;13.60;99.90
5200;DHT22;2619;47.868;11.892;2023-04-23T09:14:33;13.80;99.90
5200;DHT22;2619;47.868;11.892;2023-04-23T09:16:59;13.90;99.90
5200;DHT22;2619;47.868;11.892;2023-04-23T09:19:26;14.10;99.90
5200;DHT22;2619;47.868;11.892;2023-04-23T09:21:52;14.30;99.90
5200;DHT22;2619;47.868;11.892;2023-04-23T09:24:21;14.60;99.90
5200;DHT22;2619;47.868;11.892;2023-04-23T09:26:49;15.20;99.90
5200;DHT22;2619;47.868;11.892;2023-04-23T09:29:19;15.40;99.90
5200;DHT22;2619;47.868;11.892;2023-04-23T09:31:46;15.60;99.90
5200;DHT22;2619;47.868;11.892;2023-04-23T09:34:20;15.90;99.90
5200;DHT22;2619;47.868;11.892;2023-04-23T09:36:48;16.20;99.90
5200;DHT22;2619;47.868;11.892;2023-04-23T09:39:18;16.20;99.90
5200;DHT22;2619;47.868;11.892;2023-04-23T09:41:44;16.50;99.90
5200;DHT22;2619;47.868;11.892;2023-04-23T09:44:11;16.70;99.90
5200;DHT22;2619;47.868;11.892;2023-04-23T09:46:40;16.90;99.90
5200;DHT22;2619;47.868;11.892;2023-04-23T09:49:08;17.40;99.90
5200;DHT22;2619;47.868;11.892;2023-04-23T09:51:47;17.60;99.90
5200;DHT22;2619;47.868;11.892;2023-04-23T09:54:19;17.40;99.90
5200;DHT22;2619;47.868;11.892;2023-04-23T09:56:50;16.60;99.90
5200;DHT22;2619;47.868;11.892;2023-04-23T09:59:27;16.90;99.90
5200;DHT22;2619;47.868;11.892;2023-04-23T10:01:53;17.10;99.90
5200;DHT22;2619;47.868;11.892;2023-04-23T10:04:23;17.40;99.90
5200;DHT22;2619;47.868;11.892;2023-04-23T10:06:57;18.10;99.90
5200;DHT22;2619;47.868;11.892;2023-04-23T10:09:24;18.60;99.90
5200;DHT22;2619;47.868;11.892;2023-04-23T10:11:51;19.00;99.90
5200;DHT22;2619;47.868;11.892;2023-04-23T10:14:20;18.90;99.90
5200;DHT22;2619;47.868;11.892;2023-04-23T10:16:45;18.70;99.90
5200;DHT22;2619;47.868;11.892;2023-04-23T10:19:13;18.50;99.90
5200;DHT22;2619;47.868;11.892;2023-04-23T10:21:43;18.90;99.90
5200;DHT22;2619;47.868;11.892;2023-04-23T10:24:12;19.00;99.90
5200;DHT22;2619;47.868;11.892;2023-04-23T10:26:41;19.30;99.90
5200;DHT22;2619;47.868;11.892;2023-04-23T10:29:13;19.70;99.90
5200;DHT22;2619;47.868;11.892;2023-04-23T10:31:44;19.20;99.90
5200;DHT22;2619;47.868;11.892;2023-04-23T10:34:10;19.00;99.90
5200;DHT22;2619;47.868;11.892;2023-04-23T10:36:37;19.10;99.90
5200;DHT22;2619;47.868;11.892;2023-04-23T10:39:03;19.40;99.90
5200;DHT22;2619;47.868;11.892;2023-04-23T10:41:39;19.50;99.90
5200;DHT22;2619;47.868;11.892;2023-04-23T10:44:06;19.10;99.90
5200;DHT22;2619;47.868;11.892;2023-04-23T10:46:35;19.10;99.90
5200;DHT22;2619;47.868;11.892;2023-04-23T10:49:13;19.30;99.90
5200;DHT22;2619;47.868;11.892;2023-04-23T10:51:39;19.30;99.90
5200;DHT22;2619;47.868;11.892;2023-04-23T10:54:08;19.50;99.90
5200;DHT22;2619;47.868;11.892;2023-04-23T10:56:40;19.50;99.90
5200;DHT22;2619;47.868;11.892;2023-04-23T10:59:21;19.50;99.90
5200;DHT22;2619;47.868;11.892;2023-04-23T11:01:49;19.50;99.90
5200;DHT22;2619;47.868;11.892;2023-04-23T11:11:58;19.10;99.90
5200;DHT22;2619;47.868;11.892;2023-04-23T11:14:44;19.30;99.90
5200;DHT22;2619;47.868;11.892;2023-04-23T11:17:13;19.40;99.90
5200;DHT22;2619;47.868;11.892;2023-04-23T11:19:40;19.70;99.90
5200;DHT22;2619;47.868;11.892;2023-04-23T11:22:13;19.90;99.90
5200;DHT22;2619;47.868;11.892;2023-04-23T11:24:40;19.70;99.90
5200;DHT22;2619;47.868;11.892;2023-04-23T11:27:08;20.00;99.90
5200;DHT22;2619;47.868;11.892;2023-04-23T11:29:36;20.20;99.90
5200;DHT22;2619;47.868;11.892;2023-04-23T11:32:02;20.00;99.90
5200;DHT22;2619;47.868;11.892;2023-04-23T11:34:31;19.90;99.90
5200;DHT22;2619;47.868;11.892;2023-04-23T11:36:58;19.80;99.90
5200;DHT22;2619;47.868;11.892;2023-04-23T11:39:24;19.80;99.90
5200;DHT22;2619;47.868;11.892;2023-04-23T11:41:50;19.90;99.90
5200;DHT22;2619;47.868;11.892;2023-04-23T11:44:17;19.70;99.90
5200;DHT22;2619;47.868;11.892;2023-04-23T11:46:45;19.70;99.90
5200;DHT22;2619;47.868;11.892;2023-04-23T11:49:12;19.40;99.90
5200;DHT22;2619;47.868;11.892;2023-04-23T11:51:42;18.90;99.90
5200;DHT22;2619;47.868;11.892;2023-04-23T11:54:11;18.70;99.90
5200;DHT22;2619;47.868;11.892;2023-04-23T11:56:38;18.90;99.90
5200;DHT22;2619;47.868;11.892;2023-04-23T11:59:04;19.30;99.90
5200;DHT22;2619;47.868;11.892;2023-04-23T12:04:09;19.40;99.90
5200;DHT22;2619;47.868;11.892;2023-04-23T12:06:35;19.30;99.90
5200;DHT22;2619;47.868;11.892;2023-04-23T12:09:01;19.10;99.90
5200;DHT22;2619;47.868;11.892;2023-04-23T12:11:26;19.40;99.90
5200;DHT22;2619;47.868;11.892;2023-04-23T12:13:52;19.50;99.90
5200;DHT22;2619;47.868;11.892;2023-04-23T12:16:35;19.50;99.90
5200;DHT22;2619;47.868;11.892;2023-04-23T12:19:00;19.40;99.90
5200;DHT22;2619;47.868;11.892;2023-04-23T12:21:26;19.30;99.90
5200;DHT22;2619;47.868;11.892;2023-04-23T12:23:55;19.30;99.90
5200;DHT22;2619;47.868;11.892;2023-04-23T12:26:20;19.50;99.90
5200;DHT22;2619;47.868;11.892;2023-04-23T12:31:18;20.00;99.90
5200;DHT22;2619;47.868;11.892;2023-04-23T12:33:44;20.10;99.90
5200;DHT22;2619;47.868;11.892;2023-04-23T12:36:10;20.40;99.90
5200;DHT22;2619;47.868;11.892;2023-04-23T12:38:36;20.30;99.90
5200;DHT22;2619;47.868;11.892;2023-04-23T12:41:03;20.30;99.90
5200;DHT22;2619;47.868;11.892;2023-04-23T12:43:29;20.20;99.90
5200;DHT22;2619;47.868;11.892;2023-04-23T12:45:55;20.50;99.90
5200;DHT22;2619;47.868;11.892;2023-04-23T12:48:20;20.20;99.90
5200;DHT22;2619;47.868;11.892;2023-04-23T12:50:47;20.20;99.90
5200;DHT22;2619;47.868;11.892;2023-04-23T12:53:13;20.20;99.90
5200;DHT22;2619;47.868;11.892;2023-04-23T12:55:39;20.40;99.90
5200;DHT22;2619;47.868;11.892;2023-04-23T12:58:05;20.40;99.90
5200;DHT22;2619;47.868;11.892;2023-04-23T13:00:31;20.60;99.90
5200;DHT22;2619;47.868;11.892;2023-04-23T13:02:57;20.50;99.90
5200;DHT22;2619;47.868;11.892;2023-04-23T13:05:23;20.00;99.90
5200;DHT22;2619;47.868;11.892;2023-04-23T13:07:48;19.80;99.90
5200;DHT22;2619;47.868;11.892;2023-04-23T13:10:14;19.60;99.90
5200;DHT22;2619;47.868;11.892;2023-04-23T13:12:40;19.80;99.90
5200;DHT22;2619;47.868;11.892;2023-04-23T13:15:07;20.10;99.90
5200;DHT22;2619;47.868;11.892;2023-04-23T13:17:33;20.50;99.90
5200;DHT22;2619;47.868;11.892;2023-04-23T13:19:59;20.50;99.90
5200;DHT22;2619;47.868;11.892;2023-04-23T13:22:24;20.10;99.90
5200;DHT22;2619;47.868;11.892;2023-04-23T13:24:54;20.00;99.90
5200;DHT22;2619;47.868;11.892;2023-04-23T13:27:21;20.00;99.90
5200;DHT22;2619;47.868;11.892;2023-04-23T13:29:47;20.20;99.90
5200;DHT22;2619;47.868;11.892;2023-04-23T13:32:12;20.30;99.90
5200;DHT22;2619;47.868;11.892;2023-04-23T13:34:38;20.30;99.90
5200;DHT22;2619;47.868;11.892;2023-04-23T13:37:04;20.40;99.90
5200;DHT22;2619;47.868;11.892;2023-04-23T13:39:36;20.60;99.90
5200;DHT22;2619;47.868;11.892;2023-04-23T13:42:02;20.70;99.90
5200;DHT22;2619;47.868;11.892;2023-04-23T13:44:29;20.50;99.90
5200;DHT22;2619;47.868;11.892;2023-04-23T13:46:55;20.30;99.90
5200;DHT22;2619;47.868;11.892;2023-04-23T13:49:23;20.00;99.90
5200;DHT22;2619;47.868;11.892;2023-04-23T13:51:49;19.90;99.90
5200;DHT22;2619;47.868;11.892;2023-04-23T13:54:15;20.00;99.90
5200;DHT22;2619;47.868;11.892;2023-04-23T13:56:40;20.10;99.90
5200;DHT22;2619;47.868;11.892;2023-04-23T13:59:06;20.40;99.90
5200;DHT22;2619;47.868;11.892;2023-04-23T14:01:32;20.40;99.90
5200;DHT22;2619;47.868;11.892;2023-04-23T14:03:57;20.40;99.90
5200;DHT22;2619;47.868;11.892;2023-04-23T14:06:23;20.50;99.90
5200;DHT22;2619;47.868;11.892;2023-04-23T14:08:48;20.30;99.90
5200;DHT22;2619;47.868;11.892;2023-04-23T14:11:14;20.30;99.90
5200;DHT22;2619;47.868;11.892;2023-04-23T14:13:40;20.40;99.90
5200;DHT22;2619;47.868;11.892;2023-04-23T14:16:05;20.30;99.90
5200;DHT22;2619;47.868;11.892;2023-04-23T14:18:31;20.30;99.90
5200;DHT22;2619;47.868;11.892;2023-04-23T14:20:56;20.10;99.90
5200;DHT22;2619;47.868;11.892;2023-04-23T14:25:58;20.20;99.90
5200;DHT22;2619;47.868;11.892;2023-04-23T14:28:44;20.10;99.90
5200;DHT22;2619;47.868;11.892;2023-04-23T14:31:10;20.30;99.90
5200;DHT22;2619;47.868;11.892;2023-04-23T14:33:36;20.40;99.90
5200;DHT22;2619;47.868;11.892;2023-04-23T14:36:01;20.60;99.90
5200;DHT22;2619;47.868;11.892;2023-04-23T14:38:27;20.40;99.90
5200;DHT22;2619;47.868;11.892;2023-04-23T14:40:53;20.40;99.90
5200;DHT22;2619;47.868;11.892;2023-04-23T14:43:19;20.40;99.90
5200;DHT22;2619;47.868;11.892;2023-04-23T14:45:44;20.40;99.90
5200;DHT22;2619;47.868;11.892;2023-04-23T14:48:11;20.50;99.90
5200;DHT22;2619;47.868;11.892;2023-04-23T14:50:36;20.40;99.90
5200;DHT22;2619;47.868;11.892;2023-04-23T14:53:02;20.40;99.90
5200;DHT22;2619;47.868;11.892;2023-04-23T14:55:31;20.50;99.90
5200;DHT22;2619;47.868;11.892;2023-04-23T14:57:57;20.20;99.90
5200;DHT22;2619;47.868;11.892;2023-04-23T15:00:22;19.90;99.90
5200;DHT22;2619;47.868;11.892;2023-04-23T15:02:48;19.90;99.90
5200;DHT22;2619;47.868;11.892;2023-04-23T15:05:14;19.90;99.90
5200;DHT22;2619;47.868;11.892;2023-04-23T15:07:40;19.70;99.90
5200;DHT22;2619;47.868;11.892;2023-04-23T15:10:07;19.60;99.90
5200;DHT22;2619;47.868;11.892;2023-04-23T15:12:47;19.60;99.90
5200;DHT22;2619;47.868;11.892;2023-04-23T15:18:05;19.30;99.90
5200;DHT22;2619;47.868;11.892;2023-04-23T15:20:30;19.10;99.90
5200;DHT22;2619;47.868;11.892;2023-04-23T15:22:56;19.00;99.90
5200;DHT22;2619;47.868;11.892;2023-04-23T15:25:21;18.80;99.90
5200;DHT22;2619;47.868;11.892;2023-04-23T15:27:48;18.70;99.90
5200;DHT22;2619;47.868;11.892;2023-04-23T15:30:21;18.80;99.90
5200;DHT22;2619;47.868;11.892;2023-04-23T15:32:47;18.70;99.90
5200;DHT22;2619;47.868;11.892;2023-04-23T15:35:13;18.70;99.90
5200;DHT22;2619;47.868;11.892;2023-04-23T15:37:39;18.60;99.90
5200;DHT22;2619;47.868;11.892;2023-04-23T15:40:05;18.50;99.90
5200;DHT22;2619;47.868;11.892;2023-04-23T15:42:31;18.50;99.90
5200;DHT22;2619;47.868;11.892;2023-04-23T15:44:57;18.60;99.90
5200;DHT22;2619;47.868;11.892;2023-04-23T15:47:22;18.60;99.90
5200;DHT22;2619;47.868;11.892;2023-04-23T15:49:48;18.60;99.90
5200;DHT22;2619;47.868;11.892;2023-04-23T15:52:15;18.70;99.90
5200;DHT22;2619;47.868;11.892;2023-04-23T15:54:41;18.70;99.90
5200;DHT22;2619;47.868;11.892;2023-04-23T15:57:07;18.50;99.90
5200;DHT22;2619;47.868;11.892;2023-04-23T15:59:32;18.40;99.90
5200;DHT22;2619;47.868;11.892;2023-04-23T16:01:58;18.30;99.90